createdAt,value
2023-03-12T00:01:19.551Z,1.21
2023-03-12T00:03:48.742Z,1.14
2023-03-12T00:06:19.720Z,1.08
2023-03-12T00:08:48.647Z,0.95
2023-03-12T00:11:19.651Z,0.90
2023-03-12T00:13:51.775Z,0.88
2023-03-12T00:16:20.700Z,0.73
2023-03-12T00:18:51.058Z,0.69
2023-03-12T00:21:22.459Z,0.74
2023-03-12T00:23:51.568Z,0.65
2023-03-12T00:26:22.252Z,0.68
2023-03-12T00:28:51.932Z,0.69
2023-03-12T00:31:23.086Z,0.50
2023-03-12T00:33:51.799Z,0.54
2023-03-12T00:36:25.014Z,0.52
2023-03-12T00:38:53.991Z,0.65
2023-03-12T00:41:23.708Z,0.64
2023-03-12T00:43:53.477Z,0.58
2023-03-12T00:46:23.034Z,0.68
2023-03-12T00:48:52.102Z,0.72
2023-03-12T00:51:22.245Z,0.81
2023-03-12T00:53:50.867Z,0.73
2023-03-12T00:56:19.266Z,0.76
2023-03-12T00:58:47.776Z,0.83
2023-03-12T01:01:16.567Z,0.76
2023-03-12T01:03:46.067Z,0.72
2023-03-12T01:06:14.798Z,0.65
2023-03-12T01:08:45.243Z,0.70
2023-03-12T01:11:15.893Z,0.70
2023-03-12T01:13:45.113Z,0.80
2023-03-12T01:16:14.144Z,0.73
2023-03-12T01:18:42.831Z,0.69
2023-03-12T01:21:11.611Z,0.69
2023-03-12T01:23:40.263Z,0.55
2023-03-12T01:26:10.188Z,0.46
2023-03-12T01:28:38.586Z,0.46
2023-03-12T01:31:10.660Z,0.34
2023-03-12T01:33:39.369Z,0.49
2023-03-12T01:36:17.388Z,0.30
2023-03-12T01:38:45.864Z,0.28
2023-03-12T01:41:15.779Z,0.35
2023-03-12T01:43:44.483Z,0.35
2023-03-12T01:46:28.531Z,0.38
2023-03-12T01:49:03.466Z,0.35
2023-03-12T01:51:37.511Z,0.39
2023-03-12T01:54:11.983Z,0.31
2023-03-12T01:56:42.911Z,0.34
2023-03-12T01:59:17.294Z,0.33
2023-03-12T02:01:46.737Z,0.34
2023-03-12T02:04:17.668Z,0.32
2023-03-12T02:06:51.039Z,0.16
2023-03-12T02:09:21.617Z,0.25
2023-03-12T02:11:52.103Z,0.45
2023-03-12T02:14:21.981Z,0.41
2023-03-12T02:16:50.611Z,0.34
2023-03-12T02:19:31.570Z,0.33
2023-03-12T02:22:00.777Z,0.32
2023-03-12T02:24:35.565Z,0.36
2023-03-12T02:27:07.457Z,0.27
2023-03-12T02:29:40.582Z,0.33
2023-03-12T02:32:17.191Z,0.25
2023-03-12T02:34:48.095Z,0.19
2023-03-12T02:37:16.608Z,0.22
2023-03-12T02:39:51.662Z,0.27
2023-03-12T02:42:21.850Z,0.25
2023-03-12T02:44:50.757Z,0.30
2023-03-12T02:47:19.424Z,0.33
2023-03-12T02:49:47.806Z,0.36
2023-03-12T02:52:16.261Z,0.36
2023-03-12T02:54:44.799Z,0.31
2023-03-12T02:57:13.795Z,0.26
2023-03-12T02:59:43.593Z,0.36
2023-03-12T03:02:13.069Z,0.28
2023-03-12T03:04:41.787Z,0.14
2023-03-12T03:07:10.273Z,0.17
2023-03-12T03:09:38.751Z,0.18
2023-03-12T03:12:07.829Z,0.21
2023-03-12T03:14:37.712Z,0.07
2023-03-12T03:17:07.603Z,0.03
2023-03-12T03:19:36.061Z,0.04
2023-03-12T03:22:05.505Z,0.00
2023-03-12T03:24:33.892Z,-0.01
2023-03-12T03:27:02.309Z,0.03
2023-03-12T03:29:30.750Z,0.07
2023-03-12T03:32:00.775Z,0.15
2023-03-12T03:34:30.528Z,0.16
2023-03-12T03:36:59.169Z,0.24
2023-03-12T03:39:29.591Z,0.30
2023-03-12T03:41:58.549Z,0.35
2023-03-12T03:44:28.269Z,0.33
2023-03-12T03:46:56.739Z,0.29
2023-03-12T03:49:25.506Z,0.36
2023-03-12T03:51:55.356Z,0.27
2023-03-12T03:54:33.946Z,0.23
2023-03-12T03:57:02.678Z,0.34
2023-03-12T03:59:31.190Z,0.36
2023-03-12T04:01:59.688Z,0.40
2023-03-12T04:04:28.718Z,0.38
2023-03-12T04:06:58.827Z,0.40
2023-03-12T04:09:27.553Z,0.36
2023-03-12T04:11:55.974Z,0.39
2023-03-12T04:14:24.379Z,0.48
2023-03-12T04:16:52.808Z,0.39
2023-03-12T04:19:21.291Z,0.37
2023-03-12T04:21:49.870Z,0.45
2023-03-12T04:24:20.752Z,0.42
2023-03-12T04:26:51.707Z,0.34
2023-03-12T04:29:20.359Z,0.53
2023-03-12T04:31:48.933Z,0.70
2023-03-12T04:34:17.421Z,0.61
2023-03-12T04:36:48.948Z,0.55
2023-03-12T04:39:20.994Z,0.50
2023-03-12T04:41:51.920Z,0.56
2023-03-12T04:44:20.460Z,0.70
2023-03-12T04:46:48.894Z,0.89
2023-03-12T04:49:21.018Z,0.80
2023-03-12T04:51:49.567Z,0.59
2023-03-12T04:54:21.037Z,0.42
2023-03-12T04:56:50.460Z,0.26
2023-03-12T04:59:21.088Z,0.25
2023-03-12T05:01:49.907Z,0.31
2023-03-12T05:04:22.778Z,0.40
2023-03-12T05:06:51.975Z,0.46
2023-03-12T05:09:21.943Z,0.43
2023-03-12T05:11:50.405Z,0.37
2023-03-12T05:14:21.273Z,0.29
2023-03-12T05:16:50.350Z,0.28
2023-03-12T05:19:18.956Z,0.24
2023-03-12T05:21:47.427Z,0.22
2023-03-12T05:24:16.843Z,0.32
2023-03-12T05:26:46.974Z,0.29
2023-03-12T05:29:21.972Z,0.22
2023-03-12T05:31:50.678Z,0.25
2023-03-12T05:34:19.261Z,0.36
2023-03-12T05:36:48.369Z,0.38
2023-03-12T05:39:22.005Z,0.39
2023-03-12T05:41:54.014Z,0.38
2023-03-12T05:44:24.424Z,0.49
2023-03-12T05:46:58.455Z,0.49
2023-03-12T05:49:28.255Z,0.40
2023-03-12T05:51:58.218Z,0.50
2023-03-12T05:54:27.387Z,0.54
2023-03-12T05:56:57.710Z,0.57
2023-03-12T05:59:27.656Z,0.72
2023-03-12T06:01:57.688Z,0.89
2023-03-12T06:04:26.653Z,0.89
2023-03-12T06:06:55.445Z,0.86
2023-03-12T06:09:24.540Z,0.93
2023-03-12T06:11:54.170Z,0.84
2023-03-12T06:14:24.179Z,0.85
2023-03-12T06:16:52.719Z,0.94
2023-03-12T06:19:21.334Z,0.85
2023-03-12T06:21:51.421Z,0.88
2023-03-12T06:24:20.470Z,0.98
2023-03-12T06:26:56.384Z,0.99
2023-03-12T06:29:26.266Z,1.03
2023-03-12T06:31:56.069Z,1.10
2023-03-12T06:34:24.576Z,1.08
2023-03-12T06:36:52.958Z,1.16
2023-03-12T06:39:21.409Z,1.23
2023-03-12T06:41:49.923Z,1.14
2023-03-12T06:44:18.507Z,1.11
2023-03-12T06:46:48.460Z,1.20
2023-03-12T06:49:17.378Z,1.15
2023-03-12T06:51:48.188Z,1.18
2023-03-12T06:54:16.819Z,1.24
2023-03-12T06:56:46.079Z,1.12
2023-03-12T06:59:14.541Z,1.16
2023-03-12T07:01:43.020Z,1.24
2023-03-12T07:04:12.960Z,1.43
2023-03-12T07:06:41.782Z,1.53
2023-03-12T07:09:10.553Z,1.64
2023-03-12T07:11:39.044Z,1.72
2023-03-12T07:14:07.468Z,1.84
2023-03-12T07:16:36.065Z,1.92
2023-03-12T07:19:04.978Z,1.99
2023-03-12T07:21:35.004Z,2.18
2023-03-12T07:24:06.888Z,2.29
2023-03-12T07:26:36.341Z,2.16
2023-03-12T07:29:05.355Z,2.27
2023-03-12T07:31:33.993Z,2.34
2023-03-12T07:34:03.288Z,2.38
2023-03-12T07:36:32.197Z,2.47
2023-03-12T07:39:02.544Z,2.45
2023-03-12T07:41:31.195Z,2.48
2023-03-12T07:44:00.029Z,2.44
2023-03-12T07:46:28.820Z,2.42
2023-03-12T07:48:57.385Z,2.61
2023-03-12T07:51:25.943Z,2.67
2023-03-12T07:53:54.680Z,2.76
2023-03-12T07:56:24.873Z,2.68
2023-03-12T07:58:54.067Z,2.62
2023-03-12T08:01:22.832Z,2.62
2023-03-12T08:03:51.689Z,2.56
2023-03-12T08:06:21.190Z,2.56
2023-03-12T08:08:49.913Z,2.39
2023-03-12T08:11:18.524Z,2.46
2023-03-12T08:13:48.733Z,2.42
2023-03-12T08:16:18.694Z,2.48
2023-03-12T08:18:47.863Z,2.43
2023-03-12T08:21:16.778Z,2.39
2023-03-12T08:23:45.331Z,2.32
2023-03-12T08:26:14.297Z,2.33
2023-03-12T08:28:42.883Z,2.29
2023-03-12T08:32:03.686Z,2.32
2023-03-12T08:34:37.778Z,2.42
2023-03-12T08:37:10.685Z,2.39
2023-03-12T08:39:39.250Z,2.47
2023-03-12T08:42:08.100Z,2.43
2023-03-12T08:44:36.767Z,2.41
2023-03-12T08:47:09.104Z,2.45
2023-03-12T08:49:37.552Z,2.39
2023-03-12T08:52:06.716Z,2.39
2023-03-12T08:54:35.190Z,2.44
2023-03-12T08:57:03.810Z,2.42
2023-03-12T08:59:32.381Z,2.41
2023-03-12T09:02:01.450Z,2.27
2023-03-12T09:04:31.429Z,2.27
2023-03-12T09:07:01.847Z,2.42
2023-03-12T09:09:30.351Z,2.34
2023-03-12T09:11:59.203Z,2.42
2023-03-12T09:15:01.636Z,2.54
2023-03-12T09:17:16.138Z,2.48
2023-03-12T09:19:46.056Z,2.45
2023-03-12T09:22:14.503Z,2.43
2023-03-12T09:24:42.979Z,2.40
2023-03-12T09:27:11.644Z,2.61
2023-03-12T09:29:57.073Z,2.45
2023-03-12T09:32:28.402Z,2.48
2023-03-12T09:34:58.353Z,2.43
2023-03-12T09:37:26.916Z,2.44
2023-03-12T09:39:55.774Z,2.47
2023-03-12T09:42:27.529Z,2.55
2023-03-12T09:44:58.612Z,2.61
2023-03-12T09:47:30.952Z,2.63
2023-03-12T09:50:09.415Z,2.62
2023-03-12T09:52:52.966Z,2.70
2023-03-12T09:55:23.300Z,2.74
2023-03-12T09:57:53.593Z,2.72
2023-03-12T10:00:25.553Z,2.65
2023-03-12T10:03:12.162Z,2.82
2023-03-12T10:05:47.836Z,2.72
2023-03-12T10:08:28.919Z,2.73
2023-03-12T10:11:07.192Z,2.96
2023-03-12T10:13:57.989Z,2.92
2023-03-12T10:16:47.388Z,2.95
2023-03-12T10:19:38.861Z,2.98
2023-03-12T10:22:21.252Z,3.05
2023-03-12T10:25:02.462Z,2.95
2023-03-12T10:27:35.725Z,2.99
2023-03-12T10:30:07.495Z,2.91
2023-03-12T10:32:42.320Z,2.99
2023-03-12T10:35:19.348Z,3.15
2023-03-12T10:37:54.338Z,3.23
2023-03-12T10:40:25.608Z,3.24
2023-03-12T10:42:55.111Z,3.26
2023-03-12T10:45:33.903Z,3.29
2023-03-12T10:48:07.106Z,3.49
2023-03-12T10:50:37.594Z,3.41
2023-03-12T10:53:23.848Z,3.48
2023-03-12T10:56:05.357Z,3.51
2023-03-12T10:58:37.932Z,3.70
2023-03-12T11:01:21.218Z,3.78
2023-03-12T11:03:51.112Z,3.82
2023-03-12T11:06:25.950Z,3.90
2023-03-12T11:09:18.312Z,3.90
2023-03-12T11:11:48.673Z,3.91
2023-03-12T11:14:21.058Z,3.87
2023-03-12T11:16:50.281Z,3.78
2023-03-12T11:19:30.296Z,3.96
2023-03-12T11:22:00.949Z,3.89
2023-03-12T11:24:31.410Z,3.94
2023-03-12T11:27:04.785Z,4.06
2023-03-12T11:29:39.855Z,4.00
2023-03-12T11:32:17.537Z,4.10
2023-03-12T11:34:47.784Z,4.12
2023-03-12T11:37:28.593Z,4.17
2023-03-12T11:40:21.340Z,4.22
2023-03-12T11:43:40.001Z,4.35
2023-03-12T11:46:24.256Z,4.43
2023-03-12T11:49:05.775Z,4.52
2023-03-12T11:51:46.153Z,4.47
2023-03-12T11:55:02.135Z,4.56
2023-03-12T11:57:42.351Z,4.67
2023-03-12T12:00:18.374Z,4.78
2023-03-12T12:03:22.619Z,4.76
2023-03-12T12:06:01.062Z,4.90
2023-03-12T12:08:54.516Z,4.98
2023-03-12T12:11:31.295Z,5.11
2023-03-12T12:14:16.607Z,5.09
2023-03-12T12:17:02.155Z,4.95
2023-03-12T12:19:49.540Z,5.03
2023-03-12T12:22:34.832Z,5.14
2023-03-12T12:25:29.042Z,5.26
2023-03-12T12:28:21.708Z,5.66
2023-03-12T12:31:06.330Z,5.71
2023-03-12T12:33:50.606Z,6.01
2023-03-12T12:36:19.945Z,6.34
2023-03-12T12:38:55.156Z,6.50
2023-03-12T12:41:26.970Z,6.46
2023-03-12T12:44:02.213Z,6.36
2023-03-12T12:46:35.736Z,6.23
2023-03-12T12:49:11.353Z,6.12
2023-03-12T12:51:46.069Z,6.38
2023-03-12T12:54:24.686Z,6.57
2023-03-12T12:56:57.761Z,6.76
2023-03-12T12:59:36.159Z,7.03
2023-03-12T13:02:16.974Z,7.22
2023-03-12T13:04:46.836Z,7.53
2023-03-12T13:07:35.326Z,7.72
2023-03-12T13:10:09.215Z,7.78
2023-03-12T13:12:49.386Z,7.77
2023-03-12T13:15:40.193Z,7.68
2023-03-12T13:18:25.247Z,7.69
2023-03-12T13:21:21.106Z,7.61
2023-03-12T13:23:58.797Z,7.79
2023-03-12T13:26:33.379Z,7.96
2023-03-12T13:29:20.747Z,7.96
2023-03-12T13:31:49.454Z,8.14
2023-03-12T13:34:46.645Z,8.27
2023-03-12T13:37:48.860Z,8.32
2023-03-12T13:41:02.299Z,8.08
2023-03-12T13:43:53.347Z,8.11
2023-03-12T13:46:42.092Z,8.32
2023-03-12T13:49:18.971Z,8.40
2023-03-12T13:52:20.905Z,8.09
2023-03-12T13:54:57.705Z,7.98
2023-03-12T13:57:38.814Z,8.05
2023-03-12T14:00:18.725Z,8.12
2023-03-12T14:02:51.526Z,8.12
2023-03-12T14:05:21.619Z,8.10
2023-03-12T14:08:23.149Z,8.11
2023-03-12T14:11:04.692Z,8.10
2023-03-12T14:14:27.031Z,8.12
2023-03-12T14:16:58.151Z,8.04
2023-03-12T14:19:29.554Z,8.04
2023-03-12T14:22:03.450Z,8.11
2023-03-12T14:24:36.774Z,8.10
2023-03-12T14:27:08.257Z,8.07
2023-03-12T14:29:40.327Z,8.08
2023-03-12T14:32:17.651Z,8.06
2023-03-12T14:34:50.068Z,8.12
2023-03-12T14:37:23.835Z,8.01
2023-03-12T14:39:56.762Z,8.05
2023-03-12T14:42:29.618Z,8.14
2023-03-12T14:45:01.853Z,8.13
2023-03-12T14:47:30.265Z,8.12
2023-03-12T14:49:59.909Z,8.15
2023-03-12T14:52:30.720Z,8.14
2023-03-12T14:55:03.517Z,8.13
2023-03-12T14:57:31.966Z,8.16
2023-03-12T15:00:02.286Z,8.20
2023-03-12T15:02:32.912Z,8.20
2023-03-12T15:05:03.553Z,8.24
2023-03-12T15:07:37.424Z,8.26
2023-03-12T15:10:19.235Z,8.20
2023-03-12T15:12:48.384Z,8.15
2023-03-12T15:15:36.165Z,8.27
2023-03-12T15:18:08.592Z,8.23
2023-03-12T15:20:37.547Z,8.27
2023-03-12T15:23:07.171Z,8.27
2023-03-12T15:25:36.987Z,8.33
2023-03-12T15:28:09.473Z,8.39
2023-03-12T15:30:40.155Z,8.41
2023-03-12T15:33:12.557Z,8.42
2023-03-12T15:35:44.388Z,8.44
2023-03-12T15:38:17.913Z,8.52
2023-03-12T15:40:53.992Z,8.46
2023-03-12T15:43:25.178Z,8.46
2023-03-12T15:46:01.012Z,8.50
2023-03-12T15:48:33.287Z,8.49
2023-03-12T15:51:02.408Z,8.48
2023-03-12T15:53:34.261Z,8.44
2023-03-12T15:56:08.989Z,8.46
2023-03-12T15:58:40.150Z,8.44
2023-03-12T16:01:11.565Z,8.34
2023-03-12T16:03:40.939Z,8.41
2023-03-12T16:06:14.140Z,8.34
2023-03-12T16:08:48.388Z,8.34
2023-03-12T16:11:21.098Z,8.25
2023-03-12T16:13:52.241Z,8.21
2023-03-12T16:16:20.761Z,8.33
2023-03-12T16:18:49.375Z,8.41
2023-03-12T16:21:17.842Z,8.39
2023-03-12T16:23:46.234Z,8.37
2023-03-12T16:26:16.956Z,8.38
2023-03-12T16:28:46.223Z,8.38
2023-03-12T16:31:15.067Z,8.40
2023-03-12T16:33:44.730Z,8.33
2023-03-12T16:36:16.768Z,8.31
2023-03-12T16:38:46.288Z,8.28
2023-03-12T16:41:19.061Z,8.31
2023-03-12T16:43:51.095Z,8.26
2023-03-12T16:46:22.382Z,8.21
2023-03-12T16:48:54.119Z,8.19
2023-03-12T16:51:23.351Z,8.16
2023-03-12T16:54:05.489Z,8.13
2023-03-12T16:56:39.939Z,8.11
2023-03-12T16:59:17.742Z,8.13
2023-03-12T17:01:46.360Z,8.13
2023-03-12T17:04:14.791Z,8.12
2023-03-12T17:06:43.353Z,8.10
2023-03-12T17:09:11.708Z,8.08
2023-03-12T17:11:41.898Z,8.06
2023-03-12T17:14:19.565Z,8.09
2023-03-12T17:16:47.985Z,8.10
2023-03-12T17:19:17.062Z,8.10
2023-03-12T17:21:46.204Z,8.16
2023-03-12T17:24:15.047Z,8.18
2023-03-12T17:26:45.513Z,8.17
2023-03-12T17:29:14.012Z,8.18
2023-03-12T17:31:42.504Z,8.20
2023-03-12T17:34:10.907Z,8.30
2023-03-12T17:36:40.449Z,8.39
2023-03-12T17:39:08.946Z,8.43
2023-03-12T17:41:37.363Z,8.45
2023-03-12T17:44:07.280Z,8.53
2023-03-12T17:46:39.170Z,8.54
2023-03-12T17:49:09.080Z,8.52
2023-03-12T17:51:38.608Z,8.53
2023-03-12T17:54:07.102Z,8.56
2023-03-12T17:56:35.500Z,8.57
2023-03-12T17:59:03.868Z,8.59
2023-03-12T18:01:33.593Z,8.64
2023-03-12T18:04:01.953Z,8.64
2023-03-12T18:06:30.371Z,8.70
2023-03-12T18:08:59.005Z,8.76
2023-03-12T18:11:27.605Z,8.83
2023-03-12T18:13:56.062Z,8.84
2023-03-12T18:16:24.551Z,8.88
2023-03-12T18:18:54.274Z,8.98
2023-03-12T18:21:22.840Z,9.01
2023-03-12T18:23:51.312Z,9.06
2023-03-12T18:26:19.683Z,9.10
2023-03-12T18:28:48.087Z,9.19
2023-03-12T18:31:16.779Z,9.19
2023-03-12T18:33:45.139Z,9.27
2023-03-12T18:36:14.880Z,9.25
2023-03-12T18:38:43.356Z,9.33
2023-03-12T18:41:13.698Z,9.37
2023-03-12T18:43:42.618Z,9.37
2023-03-12T18:46:11.419Z,9.38
2023-03-12T18:48:41.755Z,9.39
2023-03-12T18:51:11.326Z,9.46
2023-03-12T18:53:41.016Z,9.46
2023-03-12T18:56:09.591Z,9.55
2023-03-12T18:58:37.998Z,9.64
2023-03-12T19:01:06.723Z,9.63
2023-03-12T19:03:36.532Z,9.63
2023-03-12T19:06:07.741Z,9.66
2023-03-12T19:08:37.255Z,9.65
2023-03-12T19:11:08.991Z,9.65
2023-03-12T19:13:37.881Z,9.65
2023-03-12T19:16:09.489Z,9.67
2023-03-12T19:18:39.336Z,9.70
2023-03-12T19:21:09.305Z,9.73
2023-03-12T19:23:37.695Z,9.72
2023-03-12T19:26:08.519Z,9.74
2023-03-12T19:28:37.300Z,9.73
2023-03-12T19:31:08.252Z,9.74
2023-03-12T19:33:36.851Z,9.76
2023-03-12T19:36:06.276Z,9.73
2023-03-12T19:38:34.913Z,9.71
2023-03-12T19:41:03.522Z,9.74
2023-03-12T19:43:33.316Z,9.74
2023-03-12T19:46:01.885Z,9.75
2023-03-12T19:48:30.231Z,9.75
2023-03-12T19:50:58.608Z,9.80
2023-03-12T19:53:27.504Z,9.86
2023-03-12T19:55:55.981Z,9.85
2023-03-12T19:58:24.418Z,9.85
2023-03-12T20:00:54.171Z,9.83
2023-03-12T20:03:23.242Z,9.79
2023-03-12T20:05:51.720Z,9.81
2023-03-12T20:08:21.059Z,9.83
2023-03-12T20:10:49.965Z,9.86
2023-03-12T20:13:18.646Z,9.86
2023-03-12T20:15:48.565Z,9.85
2023-03-12T20:18:19.048Z,9.81
2023-03-12T20:20:48.442Z,9.84
2023-03-12T20:23:16.898Z,9.82
2023-03-12T20:25:48.443Z,9.79
2023-03-12T20:28:17.541Z,9.78
2023-03-12T20:30:46.221Z,9.80
2023-03-12T20:33:14.598Z,9.82
2023-03-12T20:35:44.365Z,9.78
2023-03-12T20:38:12.763Z,9.74
2023-03-12T20:40:41.170Z,9.74
2023-03-12T20:43:09.602Z,9.71
2023-03-12T20:45:38.450Z,9.69
2023-03-12T20:48:07.891Z,9.67
2023-03-12T20:50:40.101Z,9.67
2023-03-12T20:53:10.155Z,9.70
2023-03-12T20:55:39.623Z,9.69
2023-03-12T20:58:08.714Z,9.72
2023-03-12T21:00:37.413Z,9.73
2023-03-12T21:03:05.902Z,9.77
2023-03-12T21:05:34.288Z,9.75
2023-03-12T21:08:02.622Z,9.76
2023-03-12T21:10:32.388Z,9.75
2023-03-12T21:13:00.738Z,9.76
2023-03-12T21:15:29.150Z,9.75
2023-03-12T21:17:59.936Z,9.77
2023-03-12T21:20:28.275Z,9.75
2023-03-12T21:22:56.612Z,9.78
2023-03-12T21:25:25.388Z,9.74
2023-03-12T21:27:56.182Z,9.82
2023-03-12T21:30:24.566Z,9.77
2023-03-12T21:32:53.049Z,9.76
2023-03-12T21:35:21.468Z,9.75
2023-03-12T21:37:50.034Z,9.74
2023-03-12T21:40:19.439Z,9.73
2023-03-12T21:42:47.861Z,9.69
2023-03-12T21:45:17.964Z,9.64
2023-03-12T21:47:46.629Z,9.62
2023-03-12T21:50:15.047Z,9.61
2023-03-12T21:52:47.848Z,9.55
2023-03-12T21:55:17.506Z,9.52
2023-03-12T21:57:46.833Z,9.48
2023-03-12T22:00:17.700Z,9.46
2023-03-12T22:02:47.402Z,9.44
2023-03-12T22:05:15.970Z,9.44
2023-03-12T22:07:44.439Z,9.44
2023-03-12T22:10:13.290Z,9.46
2023-03-12T22:12:42.221Z,9.46
2023-03-12T22:15:12.099Z,9.42
2023-03-12T22:17:41.799Z,9.41
2023-03-12T22:20:12.353Z,9.39
2023-03-12T22:22:40.742Z,9.33
2023-03-12T22:25:10.202Z,9.38
2023-03-12T22:27:38.663Z,9.41
2023-03-12T22:30:12.420Z,9.39
2023-03-12T22:32:42.292Z,9.39
2023-03-12T22:35:11.299Z,9.37
2023-03-12T22:37:39.815Z,9.32
2023-03-12T22:40:10.823Z,9.28
2023-03-12T22:42:41.872Z,9.30
2023-03-12T22:45:11.214Z,9.31
2023-03-12T22:47:40.911Z,9.29
2023-03-12T22:50:11.431Z,9.30
2023-03-12T22:52:40.380Z,9.25
2023-03-12T22:55:09.943Z,9.27
2023-03-12T22:57:38.864Z,9.21
2023-03-12T23:00:11.533Z,9.29
2023-03-12T23:02:41.833Z,9.36
2023-03-12T23:05:11.718Z,9.36
2023-03-12T23:07:40.211Z,9.81
2023-03-12T23:10:10.049Z,9.64
2023-03-12T23:12:38.438Z,9.73
2023-03-12T23:15:08.373Z,9.60
2023-03-12T23:17:37.049Z,9.65
2023-03-12T23:20:09.601Z,9.87
2023-03-12T23:22:38.082Z,9.70
2023-03-12T23:25:07.366Z,9.83
2023-03-12T23:27:35.817Z,9.75
2023-03-12T23:30:04.447Z,9.58
2023-03-12T23:32:32.902Z,9.58
2023-03-12T23:35:01.323Z,9.57
2023-03-12T23:37:31.132Z,9.60
2023-03-12T23:39:59.450Z,9.58
2023-03-12T23:42:29.106Z,9.58
2023-03-12T23:44:57.479Z,9.58
2023-03-12T23:47:25.871Z,9.55
2023-03-12T23:49:54.277Z,9.59
2023-03-12T23:52:22.576Z,9.62
2023-03-12T23:54:52.750Z,9.64
2023-03-12T23:57:21.063Z,9.63
2023-03-12T23:59:49.502Z,9.66
